Terminal Aerodrome Forecast
Issued by NWS

Current Version | Previous Version | Text Only | Print | Product List | Glossary Off
Versions: 1 2 3 4 5 6 7 8 9 10 11 12 13 14 15 16 17 18 19 20 21

917
FTUS41 KILN 271127
TAFLCK
TAF
KLCK 271127Z 2712/2812 18011KT P6SM SCT050 BKN100
     FM271400 20015G25KT P6SM VCSH OVC045
     FM271600 20015G22KT P6SM VCTS OVC045CB
     FM272000 24015G25KT P6SM BKN050
     FM280100 25012G18KT P6SM SCT050
     FM280300 24006KT P6SM SCT150=

USA.gov is the U.S. government's official web portal to all federal, state and local government web resources and services.